Pineville, MO (64856)

2:42 PM CST on December 17, 2014 (GMT -0600)
Loch Lomond | Change Station
CLOSE
Current Station
Personal Weather Station
Location: Bella Vista, AR
Elevation: 1243 ft
Nearby Weather Stations
Active Advisory: Winter Weather Advisory Active Notice: Public Information Statement

Elev 1243 ft 36.48 °N, 94.33 °W | Updated 11 minutes ago

Rain
Rain
34.4 °F
Feels Like 34 °F
N
0.0
Wind Variable Wind from SSW
Gusts 0.0 mph

Today
High -- | Low -- °F
--% Chance of Precip.
Yesterday
High -- | Low -- °F
Precip. -- in
7:23 AM 5:03 PM
Waning Crescent, 20% visible
Pressure 30.22 in
Visibility 10.0 miles
Clouds Overcast 5000 ft
Windchill 34 °F
Dew Point 31 °F
Humidity 88%
Rainfall 0.02 in
Snow Depth Not available.
UV 1 out of 12
Pollen 3.60 out of 12
Air Quality Not available.
Flu Activity Not available.
METAR KVBT 172035Z AUTO 15004KT 10SM OVC050 02/M01 A3022 RMK AO1

More Conditions Fewer Conditions

Pressure 30.22 in
Visibility 10.0 miles
Clouds Overcast 5000 ft
Windchill 34 °F
Dew Point 31 °F
Humidity 88%
Rainfall 0.02 in
Snow Depth Not available.
UV 1 out of 12
Pollen 3.60 out of 12
Air Quality Not available.
Flu Activity Not available.
METAR KVBT 172035Z AUTO 15004KT 10SM OVC050 02/M01 A3022 RMK AO1

More Conditions Fewer Conditions

10-Day Weather Forecast

Almanac

Astronomy

Dec. 17, 2014 Rise Set
Actual Time
Civil Twilight
Nautical Twilight
Astronomical Twilight
Moon
Length of Visible Light
Length of Day
Tomorrow will be .
, % of the Moon is Illuminated

Today's Extremes

State Highs State Lows

Community

WunderPhotos

Upload Photos

1,778,803 photos uploaded!

WunderBlogs® & News

Nearby

Air Quality

  Air Quality AQ Index Pollutant
Not available.

Snow Depth

Station Depth Elevation

Earthquake Activity

City Distance Mag. Time & Date
Minimum magnitude displayed is 2.5.

Coastal Water Temperatures

Place Temperature

Nearby Weather Stations